Time;durP1;ratioP1;P1;durP2;ratioP2;P2;SDS_P1;SDS_P2;PMS_P1;PMS_P2;Temp;Humidity;BMP_temperature;BMP_pressure;BME280_temperature;BME280_humidity;BME280_pressure;Samples;Min_cycle;Max_cycle;Signal;HPM_P1;HPM_P2
2023/06/14 00:00:11;;;;;;;3.10;1.57;;;;;;;17.54;50.48;94946.56;4342706;32;20199;-65
2023/06/14 00:02:39;;;;;;;1.07;1.07;;;;;;;17.45;50.13;94956.72;4324126;32;20189;-65
2023/06/14 00:05:05;;;;;;;0.70;0.70;;;;;;;17.59;50.63;94956.28;4330304;32;20189;-65
2023/06/14 00:07:42;;;;;;;0.70;0.70;;;;;;;17.54;49.60;94957.31;4328653;32;20224;-65
2023/06/14 00:10:08;;;;;;;2.43;1.53;;;;;;;17.42;50.58;94963.53;4334274;32;20303;-65
2023/06/14 00:12:33;;;;;;;0.77;0.77;;;;;;;17.28;50.26;94960.47;4329457;32;20230;-65
2023/06/14 00:15:01;;;;;;;1.27;1.27;;;;;;;17.28;49.60;94959.69;4345952;32;20196;-66
2023/06/14 00:17:29;;;;;;;0.77;0.77;;;;;;;17.25;51.45;94957.72;4322776;33;20181;-65
2023/06/14 00:19:56;;;;;;;0.87;0.87;;;;;;;17.39;51.61;94950.81;4343755;32;20197;-65
2023/06/14 00:22:24;;;;;;;2.03;1.67;;;;;;;17.36;51.35;94956.09;4342673;32;20213;-65
2023/06/14 00:24:50;;;;;;;1.63;1.53;;;;;;;17.46;51.02;94960.91;4345232;32;20189;-65
2023/06/14 00:27:15;;;;;;;2.23;1.83;;;;;;;17.40;51.47;94951.59;4347172;32;20205;-64
2023/06/14 00:29:41;;;;;;;0.77;0.77;;;;;;;17.47;51.81;94943.72;4329986;33;20185;-65
2023/06/14 00:32:07;;;;;;;1.57;1.47;;;;;;;17.16;51.39;94953.28;4343889;32;20248;-65
2023/06/14 00:34:32;;;;;;;0.63;0.63;;;;;;;17.09;52.96;94950.41;4338965;32;20186;-65
2023/06/14 00:36:58;;;;;;;0.90;0.90;;;;;;;17.17;53.59;94938.00;4329779;32;20215;-65
2023/06/14 00:39:23;;;;;;;2.63;1.33;;;;;;;17.12;52.34;94936.34;4333026;32;20189;-65
2023/06/14 00:41:48;;;;;;;1.87;1.77;;;;;;;17.07;53.07;94949.19;4341745;32;20185;-65
2023/06/14 00:44:16;;;;;;;2.17;1.43;;;;;;;16.69;53.34;94945.13;4331379;33;20194;-65
2023/06/14 00:46:41;;;;;;;0.73;0.73;;;;;;;16.60;53.53;94944.50;4336351;32;20186;-65
2023/06/14 00:49:07;;;;;;;1.47;1.37;;;;;;;16.69;53.95;94945.13;4321067;33;20228;-65
2023/06/14 00:51:32;;;;;;;1.47;1.37;;;;;;;17.03;53.04;94945.69;4345225;32;20265;-65
2023/06/14 00:53:58;;;;;;;0.47;0.47;;;;;;;16.98;52.07;94946.69;4345521;32;20189;-65
2023/06/14 00:56:24;;;;;;;4.57;1.80;;;;;;;17.09;53.39;94947.75;4345294;32;20197;-65
2023/06/14 00:58:50;;;;;;;1.00;0.90;;;;;;;17.09;53.04;94945.06;4332664;33;20189;-65
2023/06/14 01:01:16;;;;;;;2.23;1.70;;;;;;;17.16;52.65;94953.28;4331400;33;20185;-65
2023/06/14 01:03:42;;;;;;;0.57;0.57;;;;;;;17.20;52.52;94953.41;4337491;33;20205;-65
2023/06/14 01:06:15;;;;;;;1.77;1.67;;;;;;;17.11;52.94;94953.53;4336218;32;20181;-65
2023/06/14 01:08:55;;;;;;;1.00;1.00;;;;;;;16.94;53.25;94945.81;4341423;32;20173;-65
2023/06/14 01:11:31;;;;;;;1.37;1.27;;;;;;;16.89;53.35;94951.41;4320457;33;20186;-65
2023/06/14 01:13:59;;;;;;;0.50;0.50;;;;;;;16.92;53.54;94947.28;4332887;33;20185;-65
2023/06/14 01:16:25;;;;;;;0.83;0.83;;;;;;;16.90;53.82;94947.63;4335908;32;20196;-65
2023/06/14 01:18:56;;;;;;;0.73;0.73;;;;;;;17.02;53.43;94950.25;4331713;32;20242;-65
2023/06/14 01:21:25;;;;;;;0.90;0.90;;;;;;;16.89;52.59;94947.97;4323504;32;20217;-65
2023/06/14 01:23:52;;;;;;;1.73;1.63;;;;;;;16.75;53.56;94948.37;4319496;33;20261;-65
2023/06/14 01:26:19;;;;;;;1.10;1.00;;;;;;;16.69;53.59;94939.00;4340285;32;20185;-65
2023/06/14 01:28:48;;;;;;;1.60;1.43;;;;;;;16.50;53.43;94943.06;4342003;32;20306;-65
2023/06/14 01:31:17;;;;;;;0.87;0.87;;;;;;;16.46;55.10;94950.19;4331545;32;20216;-65
2023/06/14 01:33:43;;;;;;;29.90;2.00;;;;;;;16.49;54.93;94940.72;4335261;32;20193;-65
2023/06/14 01:36:09;;;;;;;4.27;1.30;;;;;;;16.37;55.44;94938.88;4347128;32;20253;-65
2023/06/14 01:38:37;;;;;;;3.03;0.90;;;;;;;16.45;54.43;94940.63;4345055;32;20224;-65
2023/06/14 01:41:03;;;;;;;1.23;1.17;;;;;;;16.37;53.41;94938.09;4343502;32;20216;-65
2023/06/14 01:43:30;;;;;;;1.20;1.20;;;;;;;16.32;54.50;94936.41;4341450;32;20279;-65
2023/06/14 01:45:57;;;;;;;0.97;0.97;;;;;;;16.46;54.60;94941.38;4335406;32;20229;-64
2023/06/14 01:48:23;;;;;;;0.97;0.97;;;;;;;16.55;54.30;94930.56;4346274;32;20181;-65
2023/06/14 01:50:49;;;;;;;1.23;1.23;;;;;;;16.24;54.13;94931.97;4343611;32;20266;-64
2023/06/14 01:53:15;;;;;;;0.70;0.67;;;;;;;16.39;54.62;94935.84;4348086;32;20206;-65
2023/06/14 01:55:43;;;;;;;0.97;0.97;;;;;;;16.11;56.15;94930.44;4337420;32;20237;-65
2023/06/14 01:58:09;;;;;;;1.07;1.07;;;;;;;16.22;56.19;94930.75;4345968;32;20208;-65
2023/06/14 02:00:34;;;;;;;5.30;1.53;;;;;;;16.18;55.10;94925.31;4329276;32;20189;-65
2023/06/14 02:03:00;;;;;;;0.80;0.80;;;;;;;16.21;54.89;94932.63;4346902;32;20201;-65
2023/06/14 02:05:26;;;;;;;0.77;0.77;;;;;;;16.25;53.18;94927.41;4329892;32;20193;-65
2023/06/14 02:07:51;;;;;;;1.10;1.07;;;;;;;16.26;54.33;94932.41;4317242;32;20288;-65
2023/06/14 02:10:17;;;;;;;1.23;1.23;;;;;;;16.27;55.89;94928.62;4330993;32;20198;-65
2023/06/14 02:12:43;;;;;;;0.50;0.50;;;;;;;16.46;55.28;94931.47;4320108;32;20190;-65
2023/06/14 02:15:09;;;;;;;0.80;0.80;;;;;;;16.32;54.92;94931.06;4324853;32;20185;-65
2023/06/14 02:17:35;;;;;;;0.60;0.60;;;;;;;16.48;53.93;94929.22;4329005;32;20217;-65
2023/06/14 02:20:03;;;;;;;1.37;0.97;;;;;;;16.45;54.69;94935.25;4326556;32;20240;-65
2023/06/14 02:22:28;;;;;;;0.70;0.70;;;;;;;16.36;56.14;94933.84;4315277;33;20199;-65
2023/06/14 02:24:53;;;;;;;7.97;1.43;;;;;;;16.30;54.68;94935.97;4331254;32;20182;-65
2023/06/14 02:27:19;;;;;;;1.30;1.20;;;;;;;16.41;54.99;94929.03;4326802;32;20232;-65
2023/06/14 02:29:44;;;;;;;1.10;1.00;;;;;;;16.26;53.61;94924.37;4318097;32;20190;-65
2023/06/14 02:32:09;;;;;;;4.87;1.93;;;;;;;15.95;54.48;94932.25;4319865;32;20182;-64
2023/06/14 02:34:35;;;;;;;1.13;0.73;;;;;;;16.19;55.43;94924.19;4327604;32;20232;-65
2023/06/14 02:37:02;;;;;;;1.30;1.13;;;;;;;15.90;55.81;94914.53;4318961;32;20236;-64
2023/06/14 02:39:28;;;;;;;0.97;0.97;;;;;;;16.04;56.29;94922.19;4325048;32;20258;-65
2023/06/14 02:41:54;;;;;;;1.90;1.07;;;;;;;16.08;55.54;94931.13;4327811;33;20207;-64
2023/06/14 02:44:19;;;;;;;1.57;1.53;;;;;;;15.99;55.88;94925.13;4326373;32;20182;-67
2023/06/14 02:46:45;;;;;;;1.37;1.27;;;;;;;16.04;55.66;94924.87;4324335;32;20189;-64
2023/06/14 02:49:11;;;;;;;1.30;1.30;;;;;;;16.15;54.86;94928.66;4319001;32;20221;-65
2023/06/14 02:51:36;;;;;;;1.67;1.57;;;;;;;15.83;55.64;94933.03;4327925;32;20198;-65
2023/06/14 02:54:02;;;;;;;1.17;1.17;;;;;;;15.97;55.85;94928.12;4327797;32;20185;-65
2023/06/14 02:56:27;;;;;;;1.03;1.03;;;;;;;15.77;56.27;94932.50;4320653;32;20186;-65
2023/06/14 02:58:53;;;;;;;1.20;1.10;;;;;;;15.65;55.69;94929.03;4329099;32;20201;-65
2023/06/14 03:01:20;;;;;;;1.17;1.17;;;;;;;15.94;56.63;94930.69;4312221;33;20191;-65
2023/06/14 03:03:45;;;;;;;0.83;0.83;;;;;;;16.04;57.64;94932.91;4329582;32;20194;-64
2023/06/14 03:06:13;;;;;;;5.03;1.87;;;;;;;16.16;56.80;94938.25;4332859;32;20189;-65
2023/06/14 03:08:42;;;;;;;2.50;0.83;;;;;;;16.12;55.67;94932.00;4320119;33;20194;-65
2023/06/14 03:11:08;;;;;;;0.77;0.77;;;;;;;16.02;56.42;94935.13;4326585;32;20218;-65
2023/06/14 03:13:34;;;;;;;0.77;0.77;;;;;;;15.78;55.42;94942.09;4343639;32;20201;-64
2023/06/14 03:16:02;;;;;;;0.93;0.93;;;;;;;15.90;57.65;94943.19;4331743;33;20212;-65
2023/06/14 03:18:30;;;;;;;1.57;1.47;;;;;;;15.70;57.33;94942.97;4325034;32;20185;-65
2023/06/14 03:20:56;;;;;;;1.13;1.13;;;;;;;15.73;56.56;94946.88;4325222;32;20178;-65
2023/06/14 03:23:23;;;;;;;1.90;1.80;;;;;;;15.80;56.68;94947.06;4346808;32;20240;-65
2023/06/14 03:25:48;;;;;;;1.67;1.57;;;;;;;15.59;56.91;94946.44;4345770;32;20208;-65
2023/06/14 03:28:13;;;;;;;2.53;1.47;;;;;;;15.81;56.59;94949.41;4346411;32;20200;-65
2023/06/14 03:30:39;;;;;;;1.13;1.03;;;;;;;15.49;56.30;94955.63;4338659;32;20301;-65
2023/06/14 03:33:05;;;;;;;4.23;1.33;;;;;;;15.60;56.20;94956.00;4344154;32;20231;-65
2023/06/14 03:35:30;;;;;;;0.93;0.93;;;;;;;15.66;57.20;94958.13;4347422;32;20199;-65
2023/06/14 03:37:55;;;;;;;0.83;0.83;;;;;;;15.70;57.33;94959.03;4328847;32;20243;-65
2023/06/14 03:40:21;;;;;;;0.73;0.73;;;;;;;15.84;57.04;94955.22;4333012;32;20229;-65
2023/06/14 03:42:47;;;;;;;0.77;0.77;;;;;;;15.81;58.62;94960.12;4338722;32;20177;-65
2023/06/14 03:45:12;;;;;;;1.37;1.30;;;;;;;15.83;58.14;94957.09;4322808;33;20181;-65
2023/06/14 03:47:37;;;;;;;1.10;1.10;;;;;;;15.88;56.63;94953.44;4330933;33;20273;-65
2023/06/14 03:50:04;;;;;;;1.33;1.33;;;;;;;15.90;58.37;94961.91;4336125;32;20239;-65
2023/06/14 03:52:29;;;;;;;0.70;0.70;;;;;;;15.80;58.70;94958.56;4344561;32;20253;-64
2023/06/14 03:54:56;;;;;;;1.33;1.33;;;;;;;15.68;59.60;94963.13;4346516;32;20193;-65
2023/06/14 03:57:21;;;;;;;10.47;1.97;;;;;;;15.57;58.96;94964.69;4329145;33;20225;-65
2023/06/14 03:59:47;;;;;;;0.87;0.87;;;;;;;15.57;60.71;94968.16;4346651;32;20200;-65
2023/06/14 04:02:15;;;;;;;1.00;1.00;;;;;;;15.67;59.74;94975.72;4334800;32;20181;-65
2023/06/14 04:04:44;;;;;;;1.23;1.13;;;;;;;15.81;58.97;94978.84;4341819;32;20202;-65
2023/06/14 04:07:11;;;;;;;1.73;1.63;;;;;;;15.48;58.60;94978.13;4331921;32;23763;-65
2023/06/14 04:09:37;;;;;;;0.60;0.60;;;;;;;15.64;60.18;94971.03;4322191;33;20202;-65
2023/06/14 04:12:02;;;;;;;0.77;0.73;;;;;;;15.53;58.97;94988.63;4339450;32;20243;-64
2023/06/14 04:14:27;;;;;;;0.77;0.77;;;;;;;15.64;58.46;94980.97;4330094;32;20199;-65
2023/06/14 04:16:53;;;;;;;0.90;0.90;;;;;;;15.49;59.64;94990.38;4325120;33;20225;-65
2023/06/14 04:19:18;;;;;;;1.33;1.13;;;;;;;15.70;60.15;94995.69;4325742;32;20182;-65
2023/06/14 04:21:43;;;;;;;0.80;0.80;;;;;;;15.68;59.13;94997.91;4339694;32;20189;-65
2023/06/14 04:24:13;;;;;;;1.67;1.57;;;;;;;15.70;58.89;95001.81;4326630;32;20329;-63
2023/06/14 04:26:44;;;;;;;3.70;1.90;;;;;;;15.45;58.70;95000.19;4339341;32;20201;-63
2023/06/14 04:29:14;;;;;;;0.93;0.93;;;;;;;15.40;59.09;95003.06;4333179;32;20292;-63
2023/06/14 04:31:39;;;;;;;1.07;1.03;;;;;;;15.71;60.06;95007.94;4333475;32;20320;-64
2023/06/14 04:34:05;;;;;;;1.50;1.30;;;;;;;15.74;60.28;95013.41;4331756;32;20200;-64
2023/06/14 04:36:34;;;;;;;1.70;1.47;;;;;;;15.71;60.54;95007.94;4327270;32;20215;-64
2023/06/14 04:39:03;;;;;;;1.40;1.30;;;;;;;15.77;59.80;95006.63;4332613;32;20189;-64
2023/06/14 04:41:30;;;;;;;1.30;1.20;;;;;;;15.73;59.59;95008.37;4326880;32;20238;-64
2023/06/14 04:43:58;;;;;;;1.03;1.03;;;;;;;15.59;59.47;95010.63;4335820;32;20189;-64
2023/06/14 04:46:23;;;;;;;1.10;1.10;;;;;;;15.68;59.31;95004.03;4329831;32;20229;-64
2023/06/14 04:48:50;;;;;;;2.23;1.30;;;;;;;16.00;60.12;95013.06;4325861;33;20258;-64
2023/06/14 04:51:16;;;;;;;1.40;1.30;;;;;;;15.93;59.81;95012.06;4322254;33;20254;-64
2023/06/14 04:53:41;;;;;;;1.47;0.83;;;;;;;15.90;58.65;95018.09;4325596;33;20186;-64
2023/06/14 04:56:07;;;;;;;1.00;1.00;;;;;;;15.96;58.37;95014.09;4332665;32;20209;-64
2023/06/14 04:58:32;;;;;;;1.87;1.77;;;;;;;15.85;59.39;95012.94;4327451;33;20255;-64
2023/06/14 05:00:59;;;;;;;4.13;1.50;;;;;;;15.79;60.33;95028.47;4329604;32;20202;-64
2023/06/14 05:03:24;;;;;;;0.80;0.80;;;;;;;15.91;60.06;95016.97;4327822;32;20281;-64
2023/06/14 05:05:50;;;;;;;1.17;1.17;;;;;;;15.93;60.06;95020.09;4329711;32;20204;-65
2023/06/14 05:08:16;;;;;;;1.30;1.30;;;;;;;16.14;58.08;95018.88;4325350;32;20190;-64
2023/06/14 05:10:41;;;;;;;1.07;1.07;;;;;;;15.91;56.81;95020.44;4326959;33;20278;-64
2023/06/14 05:13:07;;;;;;;2.23;1.67;;;;;;;16.04;58.61;95026.56;4327982;33;20189;-64
2023/06/14 05:15:33;;;;;;;0.73;0.60;;;;;;;16.05;59.41;95022.78;4345274;32;20189;-64
2023/06/14 05:17:58;;;;;;;14.57;1.23;;;;;;;16.15;59.38;95033.03;4320996;32;20266;-64
2023/06/14 05:20:24;;;;;;;1.67;1.53;;;;;;;16.20;57.63;95027.47;4328662;32;20186;-64
2023/06/14 05:22:52;;;;;;;1.10;1.10;;;;;;;16.16;58.88;95031.94;4329642;33;20186;-65
2023/06/14 05:25:17;;;;;;;4.13;1.87;;;;;;;16.14;58.84;95031.47;4325057;33;20261;-64
2023/06/14 05:27:43;;;;;;;1.10;1.10;;;;;;;16.11;59.35;95035.59;4322214;33;20186;-64
2023/06/14 05:30:09;;;;;;;1.90;1.13;;;;;;;16.22;58.53;95035.91;4326323;32;20206;-64
2023/06/14 05:32:34;;;;;;;0.90;0.90;;;;;;;16.33;57.60;95044.28;4331836;33;20204;-64
2023/06/14 05:34:59;;;;;;;0.93;0.93;;;;;;;16.43;59.18;95039.25;4339198;33;20223;-64
2023/06/14 05:37:25;;;;;;;1.30;1.30;;;;;;;16.47;56.83;95044.72;4319872;32;20209;-64
2023/06/14 05:39:50;;;;;;;0.90;0.90;;;;;;;16.60;56.31;95038.22;4327487;32;20181;-64
2023/06/14 05:42:16;;;;;;;1.37;1.30;;;;;;;16.67;58.01;95033.09;4338061;32;20207;-64
2023/06/14 05:44:41;;;;;;;1.70;1.53;;;;;;;16.68;57.12;95041.91;4327000;33;20236;-64
2023/06/14 05:47:06;;;;;;;1.23;1.23;;;;;;;16.83;57.15;95036.63;4325491;32;20178;-64
2023/06/14 05:49:32;;;;;;;1.20;1.20;;;;;;;16.90;57.04;95046.00;4325470;33;20181;-65
2023/06/14 05:51:57;;;;;;;1.17;1.17;;;;;;;17.01;57.51;95039.03;4343556;32;20196;-65
2023/06/14 05:54:22;;;;;;;1.07;1.07;;;;;;;16.98;55.55;95048.53;4330776;33;20182;-64
2023/06/14 05:56:48;;;;;;;2.27;2.03;;;;;;;17.20;55.41;95041.09;4326067;33;20201;-64
2023/06/14 05:59:13;;;;;;;0.80;0.80;;;;;;;17.10;53.54;95037.75;4321537;33;20185;-64
2023/06/14 06:01:40;;;;;;;0.93;0.93;;;;;;;17.09;55.51;95046.91;4336558;32;20240;-64
2023/06/14 06:04:06;;;;;;;8.60;1.23;;;;;;;17.20;53.21;95041.09;4324012;33;20210;-64
2023/06/14 06:06:32;;;;;;;1.10;1.10;;;;;;;17.06;52.68;95050.28;4341619;32;20190;-64
2023/06/14 06:08:58;;;;;;;1.80;1.20;;;;;;;17.07;53.45;95045.69;4337089;32;20280;-64
2023/06/14 06:11:23;;;;;;;0.70;0.70;;;;;;;17.17;54.67;95047.91;4339110;32;20260;-64
2023/06/14 06:13:48;;;;;;;0.80;0.80;;;;;;;17.30;54.56;95043.25;4339684;32;20204;-64
2023/06/14 06:16:14;;;;;;;1.30;1.30;;;;;;;17.32;51.09;95051.75;4345109;32;20190;-64
2023/06/14 06:18:40;;;;;;;1.27;1.27;;;;;;;17.43;54.77;95048.25;4333267;32;20260;-64
2023/06/14 06:21:06;;;;;;;0.97;0.97;;;;;;;17.49;55.10;95056.78;4346368;32;20226;-64
2023/06/14 06:23:31;;;;;;;1.10;1.00;;;;;;;17.60;52.99;95062.47;4333281;32;20197;-64
2023/06/14 06:25:57;;;;;;;1.03;0.97;;;;;;;17.83;54.69;95058.09;4331715;32;20205;-64
2023/06/14 06:28:22;;;;;;;1.07;1.07;;;;;;;17.83;54.04;95061.56;4343327;32;20189;-65
2023/06/14 06:30:47;;;;;;;16.23;2.97;;;;;;;17.82;54.00;95060.00;4330610;32;20177;-64
2023/06/14 06:33:13;;;;;;;1.00;1.00;;;;;;;18.02;54.13;95068.94;4332983;32;20265;-64
2023/06/14 06:35:39;;;;;;;2.97;1.63;;;;;;;18.17;51.11;95067.34;4343263;32;20193;-64
2023/06/14 06:38:05;;;;;;;0.93;0.93;;;;;;;18.02;53.36;95068.16;4341510;32;20193;-64
2023/06/14 06:40:30;;;;;;;2.63;2.43;;;;;;;17.68;51.74;95072.25;4321587;32;20261;-65
2023/06/14 06:42:55;;;;;;;4.43;1.83;;;;;;;17.86;54.01;95068.16;4345993;32;20268;-65
2023/06/14 06:45:23;;;;;;;1.30;1.23;;;;;;;17.91;52.20;95067.09;4329968;32;20284;-65
2023/06/14 06:47:48;;;;;;;1.10;1.10;;;;;;;18.02;51.63;95074.28;4333679;32;20211;-64
2023/06/14 06:50:13;;;;;;;0.70;0.70;;;;;;;18.24;50.50;95070.22;4342657;32;20189;-65
2023/06/14 06:52:39;;;;;;;1.30;1.27;;;;;;;18.21;50.08;95078.97;4343823;32;21996;-64
2023/06/14 06:55:04;;;;;;;0.80;0.80;;;;;;;18.27;50.57;95080.28;4340749;32;20213;-65
2023/06/14 06:57:29;;;;;;;0.97;0.97;;;;;;;18.33;51.48;95078.84;4333520;32;20221;-64
2023/06/14 06:59:55;;;;;;;0.83;0.83;;;;;;;18.41;49.21;95077.91;4331729;32;20189;-66
2023/06/14 07:02:21;;;;;;;2.47;1.50;;;;;;;18.55;49.07;95082.81;4320921;32;20186;-67
2023/06/14 07:04:47;;;;;;;1.40;1.40;;;;;;;18.91;50.90;95076.38;4330677;33;20194;-67
2023/06/14 07:07:12;;;;;;;0.53;0.53;;;;;;;19.02;47.56;95077.34;4321603;32;20209;-68
2023/06/14 07:09:38;;;;;;;1.23;1.13;;;;;;;19.15;50.48;95081.44;4326511;32;20205;-67
2023/06/14 07:12:03;;;;;;;0.80;0.80;;;;;;;19.18;47.25;95074.59;4324907;32;20206;-68
2023/06/14 07:14:30;;;;;;;2.00;1.03;;;;;;;19.28;47.44;95082.12;4325896;32;20198;-68
2023/06/14 07:16:55;;;;;;;1.27;1.27;;;;;;;19.50;46.14;95075.25;4319481;32;20225;-68
2023/06/14 07:19:20;;;;;;;1.20;1.20;;;;;;;19.54;46.21;95084.16;4321421;33;20186;-69
2023/06/14 07:21:46;;;;;;;1.07;1.00;;;;;;;19.55;46.34;95089.19;4325271;32;20193;-67
2023/06/14 07:24:11;;;;;;;1.37;1.33;;;;;;;19.63;46.94;95090.09;4323954;32;20198;-67
2023/06/14 07:26:37;;;;;;;2.50;1.60;;;;;;;19.65;46.20;95085.16;4326666;32;20208;-68
2023/06/14 07:29:02;;;;;;;0.93;0.93;;;;;;;19.45;46.16;95094.34;4329916;32;20237;-68
2023/06/14 07:31:28;;;;;;;0.80;0.80;;;;;;;19.48;47.80;95093.66;4325973;32;20194;-66
2023/06/14 07:33:53;;;;;;;2.37;1.00;;;;;;;19.50;46.65;95097.56;4326591;32;20239;-67
2023/06/14 07:36:18;;;;;;;0.60;0.60;;;;;;;19.56;48.32;95095.34;4325536;32;20182;-67
2023/06/14 07:38:44;;;;;;;0.77;0.77;;;;;;;19.57;46.83;95096.91;4326806;32;20182;-67
2023/06/14 07:41:10;;;;;;;0.50;0.50;;;;;;;19.63;45.91;95103.56;4327281;33;20281;-67
2023/06/14 07:43:35;;;;;;;0.33;0.33;;;;;;;19.67;45.38;95101.72;4330180;32;20179;-66
2023/06/14 07:46:01;;;;;;;1.03;1.03;;;;;;;19.66;45.68;95099.38;4316244;32;20194;-66
2023/06/14 07:48:27;;;;;;;0.60;0.60;;;;;;;19.66;44.68;95102.06;4326542;32;20228;-66
2023/06/14 07:50:52;;;;;;;1.10;1.10;;;;;;;19.71;44.05;95099.09;4323447;32;20252;-67
2023/06/14 07:53:17;;;;;;;0.73;0.73;;;;;;;19.81;42.33;95106.59;4327573;32;20198;-66
2023/06/14 07:55:43;;;;;;;0.50;0.50;;;;;;;19.77;42.03;95101.13;4325994;32;20194;-66
2023/06/14 07:58:10;;;;;;;0.80;0.80;;;;;;;19.64;44.38;95102.44;4319799;32;20196;-66
2023/06/14 08:00:35;;;;;;;0.97;0.97;;;;;;;19.64;42.89;95102.44;4323228;32;20198;-67
2023/06/14 08:03:01;;;;;;;1.23;1.13;;;;;;;19.78;43.59;95099.22;4315343;32;20221;-67
2023/06/14 08:05:27;;;;;;;0.67;0.67;;;;;;;19.78;44.23;95091.91;4324530;32;20197;-67
2023/06/14 08:07:53;;;;;;;0.47;0.47;;;;;;;19.77;43.44;95095.75;4343283;32;20224;-67
2023/06/14 08:10:18;;;;;;;0.70;0.70;;;;;;;19.94;42.23;95099.13;4325380;33;20186;-66
2023/06/14 08:12:44;;;;;;;1.00;1.00;;;;;;;19.83;42.84;95094.31;4341895;32;20207;-67
2023/06/14 08:15:10;;;;;;;0.70;0.70;;;;;;;19.88;42.23;95096.72;4331758;32;20367;-67
2023/06/14 08:17:36;;;;;;;0.80;0.80;;;;;;;19.96;41.54;95094.91;4342875;32;20209;-67
2023/06/14 08:20:02;;;;;;;0.80;0.80;;;;;;;20.02;40.87;95103.50;4341453;32;20253;-67
2023/06/14 08:22:31;;;;;;;0.40;0.40;;;;;;;20.02;38.89;95095.41;4329642;32;20194;-67
2023/06/14 08:24:57;;;;;;;0.30;0.30;;;;;;;20.07;38.78;95097.81;4328471;33;20206;-66
2023/06/14 08:27:22;;;;;;;2.60;1.20;;;;;;;20.00;39.03;95100.37;4336055;32;20307;-67
2023/06/14 08:29:47;;;;;;;0.60;0.60;;;;;;;20.10;38.71;95107.87;4344377;32;20212;-67
2023/06/14 08:32:13;;;;;;;0.33;0.33;;;;;;;20.10;39.89;95108.66;4328294;32;20182;-67
2023/06/14 08:34:38;;;;;;;0.73;0.73;;;;;;;20.14;39.15;95106.03;4325767;32;20194;-67
2023/06/14 08:37:06;;;;;;;0.90;0.90;;;;;;;20.15;38.91;95104.88;4365068;27;20243;-64
2023/06/14 08:39:31;;;;;;;0.63;0.60;;;;;;;20.26;38.40;95113.91;4331280;27;20257;-67
2023/06/14 08:41:59;;;;;;;0.67;0.67;;;;;;;20.27;38.30;95112.78;4291233;32;20208;-66
2023/06/14 08:44:25;;;;;;;0.63;0.63;;;;;;;20.21;38.20;95114.97;4318351;32;20197;-67
2023/06/14 08:46:53;;;;;;;0.80;0.80;;;;;;;20.28;37.92;95114.34;4288692;32;20321;-66
2023/06/14 08:49:21;;;;;;;0.40;0.40;;;;;;;20.37;39.52;95112.19;4301181;32;20194;-67
2023/06/14 08:51:47;;;;;;;0.50;0.50;;;;;;;20.43;39.17;95118.06;4293091;33;20229;-67
2023/06/14 08:54:43;;;;;;;0.70;0.70;;;;;;;20.47;38.96;95116.97;4318250;32;20299;-67
2023/06/14 08:57:15;;;;;;;0.70;0.70;;;;;;;20.50;38.16;95118.97;4312615;32;20208;-67
2023/06/14 08:59:53;;;;;;;0.87;0.80;;;;;;;20.57;37.53;95110.22;4290980;32;20273;-67
2023/06/14 09:02:22;;;;;;;2.00;1.40;;;;;;;20.57;37.25;95110.22;4291195;32;20213;-66
2023/06/14 09:04:49;;;;;;;1.73;0.93;;;;;;;20.66;37.13;95109.94;4277156;32;20193;-66
2023/06/14 09:07:15;;;;;;;0.70;0.70;;;;;;;20.59;37.63;95114.09;4282655;32;20202;-67
2023/06/14 09:09:44;;;;;;;0.70;0.70;;;;;;;20.56;37.07;95109.44;4295530;32;20232;-66
2023/06/14 09:12:20;;;;;;;0.63;0.63;;;;;;;20.71;36.19;95115.03;4309135;32;20221;-66
2023/06/14 09:14:50;;;;;;;0.30;0.30;;;;;;;20.77;36.08;95113.59;4304507;32;20193;-66
2023/06/14 09:17:17;;;;;;;0.80;0.80;;;;;;;20.77;36.57;95116.28;4317409;32;20215;-66
2023/06/14 09:19:49;;;;;;;0.93;0.93;;;;;;;20.88;36.81;95114.50;4300080;32;20318;-66
2023/06/14 09:22:18;;;;;;;0.80;0.80;;;;;;;20.96;36.52;95124.28;4267395;32;20274;-67
2023/06/14 09:24:44;;;;;;;1.40;1.37;;;;;;;21.01;36.49;95120.47;4280064;32;20269;-66
2023/06/14 09:27:18;;;;;;;0.67;0.67;;;;;;;21.01;37.94;95129.31;4326748;32;20408;-66
2023/06/14 09:29:45;;;;;;;0.50;0.50;;;;;;;21.07;37.55;95111.69;4284031;32;20308;-66
2023/06/14 09:32:14;;;;;;;0.37;0.37;;;;;;;21.17;37.12;95126.47;4312428;32;20277;-66
2023/06/14 09:34:42;;;;;;;0.63;0.63;;;;;;;20.95;38.20;95121.94;4327994;32;20198;-66
2023/06/14 09:37:08;;;;;;;1.23;0.80;;;;;;;21.05;37.60;95124.75;4324277;32;20243;-66
2023/06/14 09:39:53;;;;;;;5.00;1.80;;;;;;;21.02;37.75;95130.87;4325952;32;20213;-67
2023/06/14 09:42:44;;;;;;;0.60;0.60;;;;;;;20.95;38.23;95130.03;4314103;32;20282;-65
2023/06/14 09:45:21;;;;;;;0.63;0.63;;;;;;;21.05;37.06;95124.75;4313576;32;20299;-66
2023/06/14 09:48:05;;;;;;;8.40;1.13;;;;;;;20.82;37.05;95130.22;4322711;32;20270;-65
2023/06/14 09:50:34;;;;;;;1.50;0.80;;;;;;;20.71;36.96;95125.81;4319150;32;20241;-65
2023/06/14 09:53:06;;;;;;;0.80;0.80;;;;;;;20.86;37.29;95127.56;4297343;32;20261;-66
2023/06/14 09:55:37;;;;;;;1.20;1.10;;;;;;;21.09;36.97;95135.59;4306032;32;20241;-66
2023/06/14 09:58:15;;;;;;;0.67;0.67;;;;;;;21.39;36.24;95128.34;4281954;32;20295;-65
2023/06/14 10:00:41;;;;;;;0.43;0.43;;;;;;;;;;4311072;32;20320;-66
2023/06/14 10:03:23;;;;;;;0.83;0.83;;;;;;;21.39;36.01;95130.25;4288055;32;20248;-66
2023/06/14 10:05:53;;;;;;;1.17;1.07;;;;;;;21.48;35.91;95138.84;4286544;33;20199;-66
2023/06/14 10:08:25;;;;;;;0.73;0.73;;;;;;;21.45;36.06;95132.25;4267723;33;20220;-66
2023/06/14 10:10:51;;;;;;;0.80;0.80;;;;;;;21.56;34.54;95132.41;4298410;32;20202;-66
2023/06/14 10:13:19;;;;;;;0.67;0.63;;;;;;;21.54;35.37;95130.06;4341566;32;20201;-66
2023/06/14 10:16:17;;;;;;;34.10;1.20;;;;;;;21.65;35.63;95124.78;4286250;33;20224;-66
2023/06/14 10:19:05;;;;;;;0.30;0.30;;;;;;;21.65;36.54;95127.47;4293201;32;20198;-66
2023/06/14 10:22:00;;;;;;;0.90;0.90;;;;;;;21.70;36.04;95124.44;4317164;32;20233;-66
2023/06/14 10:24:41;;;;;;;3.37;3.17;;;;;;;21.88;34.84;95125.41;4303574;32;20206;-66
2023/06/14 10:27:10;;;;;;;1.53;1.53;;;;;;;21.86;34.29;95121.53;4262455;33;20262;-66
2023/06/14 10:29:59;;;;;;;1.93;1.83;;;;;;;21.82;34.75;95121.47;4297562;32;20201;-66
2023/06/14 10:32:29;;;;;;;1.10;1.10;;;;;;;21.89;34.35;95118.88;4298991;32;20220;-65
2023/06/14 10:35:21;;;;;;;1.07;1.07;;;;;;;21.98;34.53;95115.09;4322115;32;20208;-66
2023/06/14 10:37:48;;;;;;;1.33;1.23;;;;;;;21.90;34.70;95120.41;4326447;32;20193;-66
2023/06/14 10:40:31;;;;;;;1.23;1.23;;;;;;;21.73;35.01;95110.22;4323935;32;20198;-65
2023/06/14 10:42:59;;;;;;;0.87;0.87;;;;;;;21.90;33.95;95116.94;4296010;32;20309;-66
2023/06/14 10:45:25;;;;;;;1.23;1.17;;;;;;;21.85;34.53;95119.97;4259950;32;20199;-66
2023/06/14 10:47:52;;;;;;;0.70;0.70;;;;;;;21.87;35.13;95118.47;4271353;32;20194;-65
2023/06/14 10:50:34;;;;;;;1.07;1.07;;;;;;;21.82;37.23;95118.78;4312731;32;20204;-66
2023/06/14 10:53:23;;;;;;;0.60;0.60;;;;;;;21.85;37.84;95115.34;4317358;32;20233;-66
2023/06/14 10:56:14;;;;;;;0.77;0.77;;;;;;;21.65;38.81;95119.38;4314243;32;20198;-65
2023/06/14 10:58:41;;;;;;;1.77;1.00;;;;;;;21.58;39.14;95132.81;4289390;32;20197;-66
2023/06/14 11:01:11;;;;;;;1.17;1.17;;;;;;;21.64;39.24;95123.22;4310632;32;20266;-66
2023/06/14 11:04:06;;;;;;;0.93;0.43;;;;;;;21.69;39.10;95125.59;4314958;32;20213;-66
2023/06/14 11:06:53;;;;;;;0.50;0.50;;;;;;;21.72;38.20;95130.25;4296917;32;20197;-66
2023/06/14 11:09:26;;;;;;;0.87;0.87;;;;;;;21.79;38.06;95122.25;4323985;32;20247;-66
2023/06/14 11:11:56;;;;;;;0.50;0.40;;;;;;;21.77;37.97;95115.66;4336916;32;20184;-66
2023/06/14 11:14:22;;;;;;;0.70;0.70;;;;;;;21.87;36.66;95117.69;4334474;32;20189;-66
2023/06/14 11:16:55;;;;;;;0.40;0.40;;;;;;;21.88;37.50;95116.53;4310463;32;20264;-66
2023/06/14 11:19:23;;;;;;;18.00;1.77;;;;;;;22.05;36.81;95115.19;4305835;32;20265;-66
2023/06/14 11:21:52;;;;;;;0.43;0.43;;;;;;;22.03;36.83;95112.84;4301866;32;20193;-67
2023/06/14 11:24:19;;;;;;;1.03;1.03;;;;;;;22.02;36.51;95115.94;4296942;32;20283;-66
2023/06/14 11:26:47;;;;;;;1.70;0.80;;;;;;;22.05;36.34;95126.00;4302263;32;20198;-66
2023/06/14 11:29:25;;;;;;;1.23;1.13;;;;;;;21.84;36.32;95111.09;4322035;32;20336;-66
2023/06/14 11:31:58;;;;;;;0.93;0.93;;;;;;;21.73;36.20;95120.22;4333278;32;20203;-66
2023/06/14 11:34:25;;;;;;;1.13;1.13;;;;;;;21.72;35.95;95122.16;4303954;32;20285;-66
2023/06/14 11:36:52;;;;;;;1.40;1.30;;;;;;;21.81;35.18;95111.06;4271434;32;20228;-66